Portada
METAR-TAF:

METAR-TAF

Aeroports :

Haifa, Israel

latitud: 32-48N, longitud: 035-02E, altitud: 8 m

Observació

L'informe es va fer fa 16 minuts, a les 13:50 UTC
Vent 4 kt del Nord-Oest
Temperatura 21°C
Humitat 56%
Pressió 1017 hPa
Visibilitat 10 km o més
Escasses núvols a una alçada de 3500 ft

METAR: LLHA 291350Z 31004KT 9999 FEW035 21/12 Q1017

Hora: 16:06 (14:06 UTC)

Pronòstic

L'informe es va fer fa 2 hores i 57 minuts, a les 11:09 UTC
Pronòstic vàlid del 29 a les 12 UTC al 30 a les 12 UTC
Vent 6 kt del Est/Sud-Est
Visibilitat 10 km o més
sense núvols per sota de 1500 mi sense presència de cumulonimbus.
Temporalment
l' 29 a les 12 UTC al 29 a les 15 UTC
Vent 6 kt del Oest
Temporalment
l' 29 a les 15 UTC al 29 a les 22 UTC
Vent 4 kt amb direcció variable

TAF: LLHA 291109Z 2912/3012 12006KT CAVOK TEMPO 2912/2915 27006KT TEMPO 2915/2922 VRB04KT TX22/2912Z TN14/3004Z

Observacions i pronòstics meteorològics de més de 4000 aeroports (METAR i TAF).

Les estacions disponibles són els punts grocs i vermells al mapa.

Posi el ratolí al punt desitjat per veure el nom de l'estació.

Feu clic per veure les observacions i els pronòstics meteorològics.

Per canviar el mapa: feu clic els botons verds amb una creu de color negre per apropar; al botó verd amb un guió per allunyar la imatge; o en les fletxes verdes per a mapes adjacents.


METAR-TAF: